Time;durP1;ratioP1;P1;durP2;ratioP2;P2;SDS_P1;SDS_P2;PMS_P1;PMS_P2;Temp;Humidity;BMP_temperature;BMP_pressure;BME280_temperature;BME280_humidity;BME280_pressure;Samples;Min_cycle;Max_cycle;Signal;HPM_P1;HPM_P2
2023/05/20 00:01:29;;;;;;;9.47;2.50;;;11.50;99.90;;;;;;4999152;28;20041;-71
2023/05/20 00:03:54;;;;;;;8.23;3.23;;;11.40;99.90;;;;;;4984570;28;20041;-71
2023/05/20 00:06:20;;;;;;;8.80;2.70;;;11.40;99.90;;;;;;5003945;28;20045;-71
2023/05/20 00:08:46;;;;;;;13.40;3.47;;;11.50;99.90;;;;;;5003225;28;20186;-71
2023/05/20 00:11:11;;;;;;;7.07;3.23;;;11.40;99.90;;;;;;5004353;28;20073;-71
2023/05/20 00:13:37;;;;;;;7.87;2.97;;;11.40;99.90;;;;;;5003650;28;20170;-71
2023/05/20 00:16:06;;;;;;;6.10;2.75;;;11.40;99.90;;;;;;4999822;28;20049;-71
2023/05/20 00:18:31;;;;;;;9.38;3.08;;;11.40;99.90;;;;;;4999369;28;20107;-71
2023/05/20 00:20:57;;;;;;;9.50;3.30;;;11.40;99.90;;;;;;5012144;28;20053;-71
2023/05/20 00:23:23;;;;;;;6.68;3.30;;;11.40;99.90;;;;;;5017356;28;20033;-71
2023/05/20 00:25:49;;;;;;;7.85;3.22;;;11.30;99.90;;;;;;5011150;28;20552;-71
2023/05/20 00:28:15;;;;;;;7.22;3.20;;;11.30;99.90;;;;;;5008750;28;20560;-71
2023/05/20 00:30:40;;;;;;;9.43;3.30;;;11.30;99.90;;;;;;5005506;28;20041;-71
2023/05/20 00:33:06;;;;;;;11.23;3.30;;;11.30;99.90;;;;;;5004658;28;20041;-71
2023/05/20 00:35:32;;;;;;;9.18;3.45;;;11.30;99.90;;;;;;5018427;28;20037;-71
2023/05/20 00:37:58;;;;;;;12.35;3.17;;;11.40;99.90;;;;;;5021065;28;20044;-71
2023/05/20 00:40:24;;;;;;;7.65;3.13;;;11.30;99.90;;;;;;5000239;28;20429;-71
2023/05/20 00:42:50;;;;;;;8.48;3.55;;;11.30;99.90;;;;;;4997111;28;20044;-71
2023/05/20 00:45:16;;;;;;;12.20;3.35;;;11.30;99.90;;;;;;5000221;28;20056;-71
2023/05/20 00:47:44;;;;;;;9.75;3.42;;;11.30;99.90;;;;;;5016429;28;20394;-71
2023/05/20 00:50:10;;;;;;;11.38;3.40;;;11.20;99.90;;;;;;5007360;28;20120;-71
2023/05/20 00:52:36;;;;;;;10.63;3.72;;;11.20;99.90;;;;;;5011252;28;20186;-71
2023/05/20 00:55:03;;;;;;;16.13;3.85;;;11.20;99.90;;;;;;5007285;28;20448;-71
2023/05/20 00:57:28;;;;;;;6.70;2.97;;;11.20;99.90;;;;;;5005127;28;20049;-71
2023/05/20 00:59:54;;;;;;;13.13;3.45;;;11.20;99.90;;;;;;5023370;28;20072;-71
2023/05/20 01:02:21;;;;;;;10.25;3.28;;;11.20;99.90;;;;;;5005071;28;20037;-71
2023/05/20 01:04:47;;;;;;;;;;;11.20;99.90;;;;;;5024798;28;20069;-71
2023/05/20 01:07:15;;;;;;;12.25;3.20;;;11.10;99.90;;;;;;5009883;28;20389;-71
2023/05/20 01:09:41;;;;;;;8.50;3.75;;;11.10;99.90;;;;;;4994981;28;20046;-71
2023/05/20 01:12:25;;;;;;;11.40;3.65;;;11.10;99.90;;;;;;5022999;28;20099;-71
2023/05/20 01:15:02;;;;;;;9.88;3.83;;;11.10;99.90;;;;;;5000972;28;20796;-70
2023/05/20 01:17:31;;;;;;;7.97;4.15;;;11.10;99.90;;;;;;5025140;28;20037;-71
2023/05/20 01:19:59;;;;;;;11.05;3.25;;;11.10;99.90;;;;;;5002790;28;20060;-71
2023/05/20 01:22:26;;;;;;;8.95;3.30;;;11.10;99.90;;;;;;5006757;28;20107;-71
2023/05/20 01:24:52;;;;;;;7.93;3.25;;;11.10;99.90;;;;;;5002543;28;20128;-71
2023/05/20 01:27:22;;;;;;;7.13;3.30;;;11.10;99.90;;;;;;5010169;28;20041;-71
2023/05/20 01:29:52;;;;;;;9.30;3.33;;;11.10;99.90;;;;;;4996125;28;20211;-71
2023/05/20 01:32:31;;;;;;;8.98;3.45;;;11.10;99.90;;;;;;4982754;28;20041;-71
2023/05/20 01:34:58;;;;;;;9.45;3.40;;;11.00;99.90;;;;;;5011760;28;20111;-71
2023/05/20 01:37:25;;;;;;;6.60;3.30;;;11.00;99.90;;;;;;5025565;28;20037;-71
2023/05/20 01:39:52;;;;;;;5.75;3.13;;;11.00;99.90;;;;;;4981413;28;20121;-71
2023/05/20 01:42:19;;;;;;;9.30;3.47;;;11.00;99.90;;;;;;4999181;28;20041;-71
2023/05/20 01:44:45;;;;;;;10.80;3.30;;;11.00;99.90;;;;;;5001148;28;20050;-71
2023/05/20 01:47:10;;;;;;;7.83;3.10;;;10.90;99.90;;;;;;5018562;28;20044;-71
2023/05/20 01:49:36;;;;;;;8.80;3.20;;;10.90;99.90;;;;;;5023154;28;20373;-71
2023/05/20 01:52:03;;;;;;;9.47;3.83;;;10.90;99.90;;;;;;5018336;28;20656;-71
2023/05/20 01:54:29;;;;;;;10.20;2.90;;;10.90;99.90;;;;;;5018824;28;20045;-71
2023/05/20 01:56:55;;;;;;;15.37;3.67;;;10.80;99.90;;;;;;5026034;28;20033;-71
2023/05/20 01:59:20;;;;;;;8.60;3.45;;;10.90;99.90;;;;;;5006703;28;20063;-71
2023/05/20 02:01:46;;;;;;;9.50;3.40;;;10.80;99.90;;;;;;5000481;28;20045;-71
2023/05/20 02:04:11;;;;;;;10.30;3.40;;;10.80;99.90;;;;;;5006797;28;20056;-71
2023/05/20 02:06:37;;;;;;;10.10;3.97;;;10.80;99.90;;;;;;5004606;28;20030;-71
2023/05/20 02:09:06;;;;;;;7.70;3.77;;;10.70;99.90;;;;;;5004240;28;20099;-71
2023/05/20 02:11:32;;;;;;;7.38;3.80;;;10.70;99.90;;;;;;5003946;28;20038;-70
2023/05/20 02:13:57;;;;;;;9.37;3.43;;;10.70;99.90;;;;;;5001966;28;20267;-71
2023/05/20 02:16:23;;;;;;;6.67;3.33;;;10.70;99.90;;;;;;5010320;28;20043;-71
2023/05/20 02:18:51;;;;;;;7.63;3.80;;;10.70;99.90;;;;;;5005859;28;20083;-71
2023/05/20 02:21:17;;;;;;;11.88;4.47;;;10.70;99.90;;;;;;5021898;28;20037;-71
2023/05/20 02:23:43;;;;;;;10.70;4.97;;;10.70;99.90;;;;;;5009418;28;20060;-71
2023/05/20 02:26:08;;;;;;;12.98;3.53;;;10.60;99.90;;;;;;5005784;28;20046;-71
2023/05/20 02:28:36;;;;;;;9.53;3.47;;;10.60;99.90;;;;;;5004413;28;20037;-70
2023/05/20 02:31:02;;;;;;;9.85;3.33;;;10.60;99.90;;;;;;4994454;28;20072;-70
2023/05/20 02:33:28;;;;;;;10.13;3.50;;;10.50;99.90;;;;;;5012373;28;20454;-70
2023/05/20 02:35:54;;;;;;;7.37;3.50;;;10.60;99.90;;;;;;5017129;28;20048;-70
2023/05/20 02:38:19;;;;;;;10.15;4.32;;;10.50;99.90;;;;;;5014621;28;20079;-70
2023/05/20 02:40:47;;;;;;;11.27;3.77;;;10.60;99.90;;;;;;5008909;28;20064;-70
2023/05/20 02:43:13;;;;;;;5.95;3.03;;;10.60;99.90;;;;;;4998061;28;20037;-70
2023/05/20 02:45:39;;;;;;;8.03;3.30;;;10.60;99.90;;;;;;4998208;28;20092;-70
2023/05/20 02:48:05;;;;;;;;;;;10.50;99.90;;;;;;5031501;28;20538;-70
2023/05/20 02:50:30;;;;;;;7.43;3.38;;;10.50;99.90;;;;;;5000929;28;19917;-70
2023/05/20 02:52:56;;;;;;;8.53;3.67;;;10.50;99.90;;;;;;5004746;28;20376;-71
2023/05/20 02:55:22;;;;;;;8.13;3.50;;;10.50;99.90;;;;;;5015732;28;20053;-70
2023/05/20 02:57:48;;;;;;;10.75;3.88;;;10.50;99.90;;;;;;5004542;28;20124;-70
2023/05/20 03:00:13;;;;;;;9.30;3.93;;;10.50;99.90;;;;;;5006634;28;20148;-70
2023/05/20 03:02:39;;;;;;;6.15;3.15;;;10.50;99.90;;;;;;5024471;28;20549;-70
2023/05/20 03:05:05;;;;;;;8.77;3.33;;;10.50;99.90;;;;;;5012869;28;20053;-70
2023/05/20 03:07:33;;;;;;;8.18;3.28;;;10.50;99.90;;;;;;4992423;28;20037;-70
2023/05/20 03:09:59;;;;;;;8.70;3.50;;;10.50;99.90;;;;;;5007151;28;20183;-70
2023/05/20 03:12:28;;;;;;;6.33;3.20;;;10.50;99.90;;;;;;5012995;28;20246;-70
2023/05/20 03:14:54;;;;;;;7.43;3.40;;;10.50;99.90;;;;;;5004625;28;20290;-70
2023/05/20 03:17:20;;;;;;;6.70;3.38;;;10.50;99.90;;;;;;5003259;28;20045;-70
2023/05/20 03:19:46;;;;;;;;;;;10.50;99.90;;;;;;5014412;28;20056;-70
2023/05/20 03:22:12;;;;;;;5.47;3.30;;;10.50;99.90;;;;;;5016806;28;20019;-70
2023/05/20 03:24:41;;;;;;;8.27;3.97;;;10.40;99.90;;;;;;5009019;28;20057;-70
2023/05/20 03:27:07;;;;;;;6.25;3.17;;;10.40;99.90;;;;;;5021653;28;20038;-70
2023/05/20 03:29:33;;;;;;;7.83;3.27;;;10.40;99.90;;;;;;5009330;28;20144;-70
2023/05/20 03:31:58;;;;;;;5.80;2.90;;;10.40;99.90;;;;;;5000064;28;20077;-70
2023/05/20 03:34:26;;;;;;;7.37;3.33;;;10.50;99.90;;;;;;5026820;28;20091;-70
2023/05/20 03:36:52;;;;;;;7.93;3.35;;;10.40;99.90;;;;;;5019790;28;20602;-70
2023/05/20 03:39:18;;;;;;;8.63;3.28;;;10.50;99.90;;;;;;5002368;28;20045;-70
2023/05/20 03:41:44;;;;;;;4.80;2.60;;;10.40;99.90;;;;;;5018362;28;20050;-70
2023/05/20 03:44:09;;;;;;;6.57;2.90;;;10.40;99.90;;;;;;5008036;28;20046;-70
2023/05/20 03:46:35;;;;;;;8.67;2.93;;;10.40;99.90;;;;;;5009331;28;20033;-70
2023/05/20 03:49:01;;;;;;;6.40;2.73;;;10.40;99.90;;;;;;5004934;28;20133;-70
2023/05/20 03:51:27;;;;;;;9.35;3.15;;;10.40;99.90;;;;;;5002710;28;20067;-70
2023/05/20 03:53:52;;;;;;;5.70;2.88;;;10.40;99.90;;;;;;4997676;28;20118;-70
2023/05/20 03:56:18;;;;;;;5.73;3.03;;;10.40;99.90;;;;;;4987984;28;20450;-70
2023/05/20 03:58:44;;;;;;;6.67;2.97;;;10.40;99.90;;;;;;5021086;28;20029;-70
2023/05/20 04:01:12;;;;;;;7.40;3.03;;;10.40;99.90;;;;;;5020288;28;20037;-70
2023/05/20 04:03:37;;;;;;;6.13;2.78;;;10.40;99.90;;;;;;5006726;28;20073;-70
2023/05/20 04:06:03;;;;;;;5.53;2.87;;;10.40;99.90;;;;;;5023333;28;20126;-71
2023/05/20 04:08:29;;;;;;;5.37;2.20;;;10.40;99.90;;;;;;5011714;28;20289;-70
2023/05/20 04:10:56;;;;;;;6.75;2.83;;;10.40;99.90;;;;;;5012490;28;20040;-70
2023/05/20 04:13:24;;;;;;;4.93;2.58;;;10.40;99.90;;;;;;4986516;28;20261;-70
2023/05/20 04:15:51;;;;;;;6.55;2.95;;;10.50;99.90;;;;;;5004041;28;20041;-70
2023/05/20 04:18:17;;;;;;;6.00;2.55;;;10.50;99.90;;;;;;5026571;28;20048;-70
2023/05/20 04:20:43;;;;;;;5.13;2.55;;;10.50;99.90;;;;;;4992423;28;20056;-70
2023/05/20 04:23:09;;;;;;;4.93;2.50;;;10.50;99.90;;;;;;5006985;28;20041;-70
2023/05/20 04:25:35;;;;;;;4.80;2.38;;;10.50;99.90;;;;;;5024683;28;20499;-70
2023/05/20 04:28:01;;;;;;;7.03;2.50;;;10.50;99.90;;;;;;5017713;28;20046;-70
2023/05/20 04:30:27;;;;;;;5.68;1.90;;;10.50;99.90;;;;;;5002485;28;20046;-70
2023/05/20 04:32:53;;;;;;;4.30;2.53;;;10.50;99.90;;;;;;4993842;28;20100;-70
2023/05/20 04:35:19;;;;;;;3.72;2.33;;;10.50;99.90;;;;;;5005789;28;20451;-70
2023/05/20 04:37:47;;;;;;;7.03;2.25;;;10.50;99.90;;;;;;5009318;28;20136;-70
2023/05/20 04:40:13;;;;;;;8.80;2.28;;;10.50;99.90;;;;;;5025728;28;20052;-70
2023/05/20 04:42:39;;;;;;;4.70;2.35;;;10.50;99.90;;;;;;5016157;28;20445;-70
2023/05/20 04:45:07;;;;;;;5.40;2.30;;;10.50;99.90;;;;;;5015657;28;20060;-70
2023/05/20 04:47:37;;;;;;;4.88;2.47;;;10.50;99.90;;;;;;5006834;28;20038;-70
2023/05/20 04:50:09;;;;;;;6.85;2.70;;;10.60;99.90;;;;;;5009697;28;20180;-70
2023/05/20 04:52:38;;;;;;;5.78;2.08;;;10.60;99.90;;;;;;4997261;28;20204;-70
2023/05/20 04:55:05;;;;;;;3.42;1.90;;;10.60;99.90;;;;;;5008565;28;20667;-70
2023/05/20 04:57:33;;;;;;;5.80;1.98;;;10.60;99.90;;;;;;5010386;28;20407;-70
2023/05/20 04:59:59;;;;;;;4.53;2.20;;;10.70;99.90;;;;;;5005467;28;20504;-70
2023/05/20 05:02:24;;;;;;;5.43;2.53;;;10.70;99.90;;;;;;4994856;28;20099;-70
2023/05/20 05:04:50;;;;;;;3.77;2.13;;;10.70;99.90;;;;;;5012349;28;20045;-70
2023/05/20 05:07:16;;;;;;;3.70;1.55;;;10.90;99.90;;;;;;5010522;28;20046;-70
2023/05/20 05:09:42;;;;;;;3.83;2.23;;;10.80;99.90;;;;;;5016549;28;20565;-70
2023/05/20 05:12:07;;;;;;;3.63;1.40;;;10.90;99.90;;;;;;5002355;28;20045;-70
2023/05/20 05:14:33;;;;;;;5.23;1.93;;;10.80;99.90;;;;;;5026358;28;20069;-70
2023/05/20 05:16:58;;;;;;;4.30;1.73;;;10.90;99.90;;;;;;5002611;28;20041;-70
2023/05/20 05:19:24;;;;;;;5.77;1.67;;;11.00;99.90;;;;;;5004671;28;20302;-70
2023/05/20 05:21:50;;;;;;;5.27;1.87;;;11.10;99.90;;;;;;5024762;28;20076;-70
2023/05/20 05:24:15;;;;;;;3.13;1.37;;;11.10;99.90;;;;;;5008183;28;21036;-70
2023/05/20 05:26:41;;;;;;;4.45;1.75;;;11.20;99.90;;;;;;5018734;28;20045;-70
2023/05/20 05:29:07;;;;;;;3.30;1.43;;;11.10;99.90;;;;;;5001617;28;20042;-70
2023/05/20 05:31:32;;;;;;;4.28;1.85;;;11.20;99.90;;;;;;5026563;28;20441;-70
2023/05/20 05:33:58;;;;;;;5.27;1.50;;;11.30;99.90;;;;;;5007692;28;20454;-70
2023/05/20 05:36:26;;;;;;;3.40;1.70;;;11.30;99.90;;;;;;5010261;28;20168;-70
2023/05/20 05:38:52;;;;;;;3.25;1.45;;;11.40;99.90;;;;;;4990419;28;20085;-70
2023/05/20 05:41:18;;;;;;;4.53;1.57;;;11.50;99.90;;;;;;5022089;28;20074;-70
2023/05/20 05:43:43;;;;;;;4.03;1.80;;;11.50;99.90;;;;;;5022434;28;20376;-70
2023/05/20 05:46:09;;;;;;;4.07;1.47;;;11.60;99.90;;;;;;5012744;28;20097;-70
2023/05/20 05:48:35;;;;;;;3.67;1.45;;;11.70;99.90;;;;;;5005718;28;20202;-70
2023/05/20 05:51:01;;;;;;;4.72;1.63;;;11.70;99.90;;;;;;5003619;28;20368;-70
2023/05/20 05:53:27;;;;;;;3.47;1.45;;;11.90;99.90;;;;;;5014630;28;20131;-70
2023/05/20 05:55:52;;;;;;;4.10;1.37;;;11.80;99.90;;;;;;5002455;28;20518;-70
2023/05/20 05:58:18;;;;;;;2.83;1.40;;;11.90;99.90;;;;;;5017674;28;20033;-70
2023/05/20 06:00:44;;;;;;;4.50;2.00;;;11.90;99.90;;;;;;5005776;28;20301;-71
2023/05/20 06:03:09;;;;;;;2.80;1.20;;;12.00;99.90;;;;;;4997167;28;20068;-70
2023/05/20 06:05:35;;;;;;;3.95;1.17;;;12.00;99.90;;;;;;5008764;28;21735;-70
2023/05/20 06:08:01;;;;;;;2.40;1.27;;;12.00;99.90;;;;;;5027462;28;20109;-70
2023/05/20 06:10:27;;;;;;;2.90;1.15;;;12.00;99.90;;;;;;4993918;28;20278;-70
2023/05/20 06:12:52;;;;;;;3.50;1.20;;;12.00;99.90;;;;;;5026875;28;20068;-71
2023/05/20 06:15:18;;;;;;;2.00;1.07;;;12.10;99.90;;;;;;5001181;28;20624;-71
2023/05/20 06:17:44;;;;;;;3.55;1.27;;;12.10;99.90;;;;;;5009065;28;20074;-71
2023/05/20 06:20:10;;;;;;;1.83;1.17;;;12.20;99.90;;;;;;5011725;28;20038;-71
2023/05/20 06:22:36;;;;;;;4.90;1.58;;;12.20;99.90;;;;;;5003933;28;20165;-71
2023/05/20 06:25:01;;;;;;;3.33;1.10;;;12.30;99.90;;;;;;5020352;28;20068;-71
2023/05/20 06:27:27;;;;;;;2.92;1.27;;;12.40;99.90;;;;;;5019732;28;20051;-71
2023/05/20 06:29:55;;;;;;;3.07;1.23;;;12.50;99.90;;;;;;5006328;28;20041;-70
2023/05/20 06:32:20;;;;;;;3.15;1.15;;;12.60;99.90;;;;;;5022583;28;20214;-71
2023/05/20 06:34:48;;;;;;;4.13;1.07;;;12.70;99.90;;;;;;5020768;28;20056;-71
2023/05/20 06:37:14;;;;;;;3.88;1.27;;;12.80;99.90;;;;;;5008384;28;20741;-70
2023/05/20 06:39:40;;;;;;;2.47;1.00;;;12.90;99.90;;;;;;5008205;28;20043;-71
2023/05/20 06:42:06;;;;;;;2.30;1.00;;;12.90;99.90;;;;;;5041541;22;20055;-67
2023/05/20 06:44:32;;;;;;;3.25;1.05;;;13.10;99.90;;;;;;5024575;28;20140;-68
2023/05/20 06:46:58;;;;;;;1.63;1.13;;;13.20;99.90;;;;;;5020462;28;20628;-67
2023/05/20 06:49:24;;;;;;;1.88;0.80;;;13.20;99.90;;;;;;5014302;28;20059;-71
2023/05/20 06:51:49;;;;;;;3.83;1.17;;;13.30;99.90;;;;;;5021143;28;20044;-74
2023/05/20 06:54:15;;;;;;;4.45;1.08;;;13.40;99.90;;;;;;5013568;28;20085;-74
2023/05/20 06:56:41;;;;;;;4.83;1.30;;;13.50;99.90;;;;;;5021207;28;20038;-69
2023/05/20 06:59:06;;;;;;;5.13;1.03;;;13.50;99.90;;;;;;5017859;28;20662;-71
2023/05/20 07:01:32;;;;;;;1.70;1.10;;;13.70;99.90;;;;;;5014480;28;20601;-73
2023/05/20 07:03:58;;;;;;;2.92;1.00;;;13.70;99.90;;;;;;5014882;28;20059;-67
2023/05/20 07:06:24;;;;;;;5.23;2.00;;;13.80;99.90;;;;;;5020689;28;20444;-70
2023/05/20 07:08:49;;;;;;;5.03;1.75;;;13.80;99.90;;;;;;5019620;28;20088;-67
2023/05/20 07:11:15;;;;;;;3.53;1.37;;;13.90;99.90;;;;;;5024191;28;20044;-67
2023/05/20 07:13:40;;;;;;;3.00;1.30;;;14.00;99.90;;;;;;5024445;28;20403;-67
2023/05/20 07:16:06;;;;;;;3.83;2.00;;;14.00;99.90;;;;;;5021842;28;20135;-66
2023/05/20 07:18:31;;;;;;;3.10;1.17;;;14.10;99.90;;;;;;5018108;28;20271;-66
2023/05/20 07:21:00;;;;;;;3.57;1.10;;;14.20;99.90;;;;;;5030222;28;20036;-67
2023/05/20 07:23:28;;;;;;;2.10;0.90;;;14.20;99.90;;;;;;5023162;28;20299;-67
2023/05/20 07:25:53;;;;;;;1.67;1.10;;;14.30;99.90;;;;;;5023760;28;20530;-74
2023/05/20 07:28:20;;;;;;;1.73;1.10;;;14.40;99.90;;;;;;5010109;28;20041;-74
2023/05/20 07:30:48;;;;;;;7.20;1.27;;;14.40;99.90;;;;;;5026962;28;20695;-74
2023/05/20 07:33:16;;;;;;;3.22;0.93;;;14.50;99.90;;;;;;5018963;28;20064;-75
2023/05/20 07:35:42;;;;;;;1.55;0.95;;;14.50;99.90;;;;;;5023017;28;20049;-75
2023/05/20 07:38:08;;;;;;;1.40;0.70;;;14.60;99.90;;;;;;5020073;28;20103;-79
2023/05/20 07:40:35;;;;;;;2.00;0.93;;;14.60;99.90;;;;;;5022323;28;20049;-76
2023/05/20 07:43:01;;;;;;;3.42;1.10;;;14.70;99.90;;;;;;5025042;28;20299;-76
2023/05/20 07:45:26;;;;;;;3.60;0.93;;;14.80;99.90;;;;;;5019134;28;20103;-76
2023/05/20 07:47:55;;;;;;;3.55;1.20;;;14.80;99.90;;;;;;5022223;28;20053;-76
2023/05/20 07:50:21;;;;;;;1.38;0.80;;;14.90;99.90;;;;;;5022903;28;20191;-75
2023/05/20 07:52:46;;;;;;;5.18;0.82;;;15.00;99.90;;;;;;5024522;28;20512;-75
2023/05/20 07:55:12;;;;;;;1.50;0.67;;;15.10;99.90;;;;;;5020141;28;20452;-75
2023/05/20 07:57:37;;;;;;;5.00;0.90;;;15.10;99.90;;;;;;5019650;28;20037;-74
2023/05/20 08:00:04;;;;;;;1.10;0.53;;;15.20;99.90;;;;;;5018123;28;20041;-76
2023/05/20 08:02:30;;;;;;;2.45;1.20;;;15.30;99.90;;;;;;5046731;28;20419;-75
2023/05/20 08:04:56;;;;;;;3.35;0.73;;;15.40;99.90;;;;;;5024715;28;20045;-76
2023/05/20 08:07:22;;;;;;;1.80;0.77;;;15.40;99.90;;;;;;5002727;28;20200;-75
2023/05/20 08:09:49;;;;;;;1.48;0.75;;;15.50;99.90;;;;;;5021388;28;20038;-76
2023/05/20 08:12:15;;;;;;;2.30;0.70;;;15.60;99.90;;;;;;5020945;28;20144;-78
2023/05/20 08:14:48;;;;;;;1.48;0.65;;;15.70;99.90;;;;;;5020125;28;20124;-77
2023/05/20 08:17:14;;;;;;;3.97;0.90;;;15.70;99.90;;;;;;5021979;28;20081;-77
2023/05/20 08:19:39;;;;;;;2.85;1.05;;;15.90;99.90;;;;;;5026155;28;20077;-77
2023/05/20 08:22:06;;;;;;;2.95;1.10;;;15.90;99.90;;;;;;5020146;28;20139;-77
2023/05/20 08:24:31;;;;;;;;;;;16.00;99.90;;;;;;4999668;28;20045;-77
2023/05/20 08:27:00;;;;;;;1.70;0.98;;;16.10;99.90;;;;;;5026070;28;19917;-77
2023/05/20 08:29:26;;;;;;;2.83;0.68;;;16.20;99.90;;;;;;5018421;28;20463;-77
2023/05/20 08:31:51;;;;;;;1.75;0.70;;;16.20;99.90;;;;;;5023775;28;20042;-77
2023/05/20 08:34:17;;;;;;;4.68;1.50;;;16.30;99.90;;;;;;5019839;28;20147;-76
2023/05/20 08:36:44;;;;;;;3.17;1.40;;;16.40;99.90;;;;;;5020907;28;20041;-76
2023/05/20 08:39:09;;;;;;;2.40;1.27;;;16.40;99.90;;;;;;5034328;28;20295;-76
2023/05/20 08:41:37;;;;;;;2.15;0.93;;;16.50;99.90;;;;;;5018358;28;20402;-76
2023/05/20 08:44:04;;;;;;;1.55;0.80;;;16.60;99.90;;;;;;5015860;28;20498;-77
2023/05/20 08:46:37;;;;;;;2.03;0.60;;;16.70;99.90;;;;;;5021730;28;20041;-77
2023/05/20 08:49:06;;;;;;;1.77;0.70;;;16.80;99.90;;;;;;5025645;28;20081;-76
2023/05/20 08:51:35;;;;;;;3.60;1.00;;;16.90;99.90;;;;;;5024086;28;20048;-76
2023/05/20 08:54:02;;;;;;;3.08;0.70;;;16.90;99.90;;;;;;5026503;28;20442;-77
2023/05/20 08:56:27;;;;;;;2.67;0.90;;;16.90;99.90;;;;;;5021221;28;20077;-77
2023/05/20 08:58:53;;;;;;;3.45;0.90;;;17.10;99.90;;;;;;5039948;28;20077;-76
2023/05/20 09:01:24;;;;;;;2.45;1.15;;;17.20;99.90;;;;;;5008113;28;20056;-77
2023/05/20 09:03:49;;;;;;;1.85;0.68;;;17.30;99.90;;;;;;5004228;28;20042;-76
2023/05/20 09:06:19;;;;;;;4.13;1.38;;;17.30;99.90;;;;;;5023043;28;20037;-77
2023/05/20 09:08:47;;;;;;;3.13;1.27;;;17.40;99.90;;;;;;5023928;28;20049;-77
2023/05/20 09:11:13;;;;;;;2.95;1.42;;;17.50;99.90;;;;;;5010930;28;20065;-77
2023/05/20 09:13:39;;;;;;;1.17;0.60;;;17.70;99.90;;;;;;5023639;28;20198;-77
2023/05/20 09:16:05;;;;;;;3.05;0.80;;;17.70;99.90;;;;;;5022918;28;20121;-77
2023/05/20 09:18:30;;;;;;;3.03;0.90;;;17.80;99.90;;;;;;5044399;28;20099;-77
2023/05/20 09:20:56;;;;;;;3.95;0.80;;;17.90;99.90;;;;;;5018287;28;20095;-78
2023/05/20 09:23:24;;;;;;;2.47;1.02;;;18.00;99.90;;;;;;5028099;28;20356;-78
2023/05/20 09:25:51;;;;;;;2.22;1.00;;;18.10;99.90;;;;;;5022942;28;20118;-77
2023/05/20 09:28:19;;;;;;;2.20;1.02;;;18.10;99.90;;;;;;5018083;28;20037;-77
2023/05/20 09:30:47;;;;;;;2.20;1.00;;;18.20;99.90;;;;;;5024679;28;20215;-77
2023/05/20 09:33:13;;;;;;;2.03;0.95;;;18.30;99.90;;;;;;5012146;28;20133;-77
2023/05/20 09:35:38;;;;;;;4.18;1.00;;;18.30;99.90;;;;;;5021943;28;20164;-77
2023/05/20 09:38:09;;;;;;;3.30;1.00;;;18.40;99.90;;;;;;5016215;28;20052;-77
2023/05/20 09:40:39;;;;;;;2.38;1.10;;;18.50;99.90;;;;;;5022118;28;20045;-77
2023/05/20 09:43:07;;;;;;;2.28;1.00;;;18.60;99.90;;;;;;5015864;28;20472;-76
2023/05/20 09:45:33;;;;;;;3.05;1.13;;;18.60;99.90;;;;;;4994788;28;20534;-76
2023/05/20 09:48:00;;;;;;;3.90;1.33;;;18.70;99.90;;;;;;5008180;28;20345;-76
2023/05/20 09:50:30;;;;;;;3.00;0.95;;;18.80;99.90;;;;;;5010183;28;20331;-76
2023/05/20 09:53:01;;;;;;;2.05;1.00;;;18.80;99.90;;;;;;5013086;28;20133;-76
2023/05/20 09:55:28;;;;;;;5.43;1.17;;;19.00;99.90;;;;;;5008816;28;20076;-76
2023/05/20 09:57:54;;;;;;;2.03;0.98;;;19.00;99.90;;;;;;5017917;28;20049;-76
2023/05/20 10:00:20;;;;;;;2.60;0.90;;;19.10;99.90;;;;;;5002278;28;20764;-75
2023/05/20 10:02:50;;;;;;;2.10;1.00;;;19.10;99.90;;;;;;4996348;28;20057;-76
2023/05/20 10:05:20;;;;;;;3.75;1.15;;;19.10;99.90;;;;;;5021194;28;20049;-68
2023/05/20 10:08:23;;;;;;;2.47;0.98;;;19.10;99.90;;;;;;5018303;28;20041;-68
2023/05/20 10:11:02;;;;;;;3.33;1.02;;;19.20;99.90;;;;;;5016437;28;20115;-68
2023/05/20 10:13:52;;;;;;;2.97;0.90;;;19.30;99.90;;;;;;5034011;28;20487;-68
2023/05/20 10:16:46;;;;;;;2.47;0.90;;;19.30;99.90;;;;;;5020033;28;20038;-68
2023/05/20 10:19:31;;;;;;;6.88;1.55;;;19.30;99.90;;;;;;5018866;28;20045;-68
2023/05/20 10:22:19;;;;;;;1.67;0.70;;;19.40;99.90;;;;;;5019028;28;20041;-68
2023/05/20 10:24:45;;;;;;;4.43;1.17;;;19.50;99.90;;;;;;5017025;28;20107;-68
2023/05/20 10:27:14;;;;;;;4.43;1.00;;;19.60;99.90;;;;;;5022107;28;20476;-68
2023/05/20 10:29:49;;;;;;;3.95;1.08;;;19.60;99.90;;;;;;4996853;28;20049;-69
2023/05/20 10:32:30;;;;;;;3.15;0.88;;;19.60;99.90;;;;;;5016829;28;20049;-68
2023/05/20 10:35:03;;;;;;;2.17;0.95;;;19.60;99.90;;;;;;5019502;28;20037;-69
2023/05/20 10:37:32;;;;;;;3.00;1.20;;;19.60;99.90;;;;;;5015186;28;20186;-68
2023/05/20 10:40:16;;;;;;;1.60;0.90;;;19.50;99.90;;;;;;5021453;28;20517;-68
2023/05/20 10:42:42;;;;;;;3.35;1.10;;;19.40;99.90;;;;;;5013830;28;20046;-69
2023/05/20 10:45:09;;;;;;;3.65;0.98;;;19.40;99.90;;;;;;5023034;28;20248;-66
2023/05/20 10:47:36;;;;;;;3.97;1.40;;;19.30;99.90;;;;;;5011621;28;20072;-66
2023/05/20 10:50:04;;;;;;;6.07;1.45;;;19.40;99.90;;;;;;5023807;28;20068;-67
2023/05/20 10:52:35;;;;;;;5.45;0.95;;;19.30;99.90;;;;;;5033056;28;20153;-66
2023/05/20 10:55:05;;;;;;;5.28;1.23;;;19.20;99.90;;;;;;5019574;28;20069;-66
2023/05/20 10:57:33;;;;;;;2.38;1.08;;;19.00;99.90;;;;;;5022190;28;20071;-67
2023/05/20 11:00:00;;;;;;;2.55;0.93;;;19.00;99.90;;;;;;5009747;28;20309;-67
2023/05/20 11:02:27;;;;;;;2.15;1.00;;;19.00;99.90;;;;;;5041624;28;20235;-66
2023/05/20 11:04:59;;;;;;;2.90;1.15;;;19.10;99.90;;;;;;5019764;28;20435;-66
2023/05/20 11:07:29;;;;;;;4.05;1.02;;;19.10;99.90;;;;;;5025654;28;20099;-66
2023/05/20 11:09:56;;;;;;;3.17;1.17;;;19.00;99.90;;;;;;5026107;28;20041;-67
2023/05/20 11:12:23;;;;;;;2.53;1.23;;;18.90;99.50;;;;;;5015386;28;20432;-66
2023/05/20 11:14:50;;;;;;;3.40;1.40;;;18.90;99.40;;;;;;5021873;28;20041;-66
2023/05/20 11:17:16;;;;;;;3.53;1.30;;;18.90;99.80;;;;;;5018060;28;20127;-67
2023/05/20 11:19:42;;;;;;;3.50;1.13;;;18.80;99.70;;;;;;5009860;28;20044;-66
2023/05/20 11:22:08;;;;;;;6.20;1.20;;;18.90;99.90;;;;;;5019641;28;20037;-67
2023/05/20 11:24:33;;;;;;;1.88;0.93;;;18.90;99.90;;;;;;5025571;28;20487;-66
2023/05/20 11:27:00;;;;;;;4.47;1.50;;;19.10;99.90;;;;;;5028641;28;20044;-66
2023/05/20 11:29:27;;;;;;;3.75;1.40;;;19.10;99.90;;;;;;5023902;28;20626;-66
2023/05/20 11:31:53;;;;;;;4.07;2.30;;;19.00;99.90;;;;;;5017451;28;20037;-66
2023/05/20 11:34:22;;;;;;;5.47;2.08;;;19.00;99.90;;;;;;5023762;28;20053;-66
2023/05/20 11:36:58;;;;;;;2.72;1.50;;;19.10;99.90;;;;;;5023573;28;20103;-67
2023/05/20 11:39:24;;;;;;;5.05;1.58;;;19.30;99.90;;;;;;5023838;28;20158;-66
2023/05/20 11:41:49;;;;;;;;;;;19.40;99.90;;;;;;5027686;28;20040;-66
2023/05/20 11:44:18;;;;;;;6.85;1.92;;;19.50;99.90;;;;;;5021282;28;19940;-66
2023/05/20 11:46:46;;;;;;;6.13;1.48;;;19.50;99.90;;;;;;5023136;28;20037;-66
2023/05/20 11:49:15;;;;;;;5.70;1.48;;;19.40;99.90;;;;;;5021116;28;20053;-66
2023/05/20 11:51:42;;;;;;;2.33;1.45;;;19.50;99.90;;;;;;5023404;28;20041;-66
2023/05/20 11:54:09;;;;;;;5.55;1.42;;;19.60;99.90;;;;;;5020196;28;20042;-66
2023/05/20 11:56:40;;;;;;;10.90;1.70;;;19.70;99.90;;;;;;5018857;28;20379;-66
2023/05/20 11:59:07;;;;;;;4.90;1.60;;;19.80;99.90;;;;;;5017389;28;20049;-66
2023/05/20 12:01:42;;;;;;;9.43;1.50;;;19.80;99.90;;;;;;5024850;28;20096;-66
2023/05/20 12:04:14;;;;;;;3.03;1.25;;;19.80;99.90;;;;;;5024276;28;20060;-67
2023/05/20 12:06:41;;;;;;;2.75;1.48;;;19.90;99.90;;;;;;5002074;28;20342;-66
2023/05/20 12:09:08;;;;;;;3.08;1.42;;;19.80;99.90;;;;;;5024966;28;20092;-66
2023/05/20 12:11:36;;;;;;;6.72;1.77;;;19.80;99.90;;;;;;5017549;28;20364;-67
2023/05/20 12:14:02;;;;;;;2.58;1.33;;;19.80;99.90;;;;;;5010079;28;20363;-66
2023/05/20 12:16:31;;;;;;;4.47;1.63;;;20.00;99.90;;;;;;5004890;28;20095;-67
2023/05/20 12:18:57;;;;;;;5.47;2.13;;;20.00;99.90;;;;;;5019339;28;20057;-66
2023/05/20 12:21:22;;;;;;;4.78;1.75;;;20.10;99.90;;;;;;5026006;28;20037;-66
2023/05/20 12:23:48;;;;;;;3.42;1.70;;;20.10;99.90;;;;;;5027584;28;20524;-67
2023/05/20 12:26:14;;;;;;;3.85;1.20;;;20.10;99.90;;;;;;5026497;28;20041;-66
2023/05/20 12:28:40;;;;;;;5.05;1.88;;;20.20;99.90;;;;;;5022859;28;20109;-67
2023/05/20 12:31:06;;;;;;;4.43;1.80;;;20.30;99.90;;;;;;5021690;28;20064;-66
2023/05/20 12:33:32;;;;;;;;;;;20.30;99.90;;;;;;5015025;28;20144;-67
2023/05/20 12:35:57;;;;;;;3.00;1.55;;;20.40;99.90;;;;;;5021060;28;20464;-66
2023/05/20 12:38:23;;;;;;;3.78;1.58;;;20.50;99.90;;;;;;5024029;28;20045;-67
2023/05/20 12:43:22;;;;;;;3.63;1.92;;;20.40;99.90;;;;;;5080424;28;20278;-68
2023/05/20 12:45:48;;;;;;;3.15;1.75;;;20.20;99.90;;;;;;5081794;28;20052;-70
2023/05/20 12:48:16;;;;;;;3.17;1.65;;;20.30;99.90;;;;;;5056961;28;20059;-72
2023/05/20 12:50:41;;;;;;;3.45;1.50;;;20.40;99.90;;;;;;5062982;28;20067;-73